createdAt,value
2022-07-29T00:00:06.380Z,17.20
2022-07-29T00:02:33.551Z,17.10
2022-07-29T00:05:00.467Z,17.10
2022-07-29T00:07:27.470Z,17.10
2022-07-29T00:09:54.664Z,17.20
2022-07-29T00:12:25.326Z,17.20
2022-07-29T00:14:53.570Z,17.30
2022-07-29T00:17:20.513Z,17.10
2022-07-29T00:19:47.416Z,17.30
2022-07-29T00:22:14.428Z,17.10
2022-07-29T00:24:41.332Z,17.00
2022-07-29T00:27:08.278Z,17.00
2022-07-29T00:29:35.479Z,17.00
2022-07-29T00:32:04.131Z,16.90
2022-07-29T00:34:50.111Z,16.90
2022-07-29T00:37:17.227Z,16.90
2022-07-29T00:39:44.220Z,16.90
2022-07-29T00:42:11.163Z,16.90
2022-07-29T00:44:42.191Z,16.80
2022-07-29T00:47:10.702Z,16.80
2022-07-29T00:49:40.083Z,16.80
2022-07-29T00:52:07.795Z,16.70
2022-07-29T00:54:37.432Z,16.90
2022-07-29T00:57:12.457Z,16.80
2022-07-29T00:59:39.426Z,16.80
2022-07-29T01:02:06.459Z,16.70
2022-07-29T01:04:33.619Z,16.80
2022-07-29T01:07:03.303Z,17.00
2022-07-29T01:09:43.199Z,17.10
2022-07-29T01:12:17.613Z,16.90
2022-07-29T01:14:45.466Z,16.80
2022-07-29T01:17:20.092Z,16.90
2022-07-29T01:20:08.290Z,16.80
2022-07-29T01:22:35.169Z,16.80
2022-07-29T01:25:55.801Z,16.80
2022-07-29T01:29:07.476Z,16.80
2022-07-29T01:31:58.677Z,16.70
2022-07-29T01:34:31.099Z,16.90
2022-07-29T01:37:12.703Z,16.90
2022-07-29T01:39:40.131Z,16.80
2022-07-29T01:42:10.498Z,16.70
2022-07-29T01:45:01.561Z,16.70
2022-07-29T01:47:35.955Z,16.70
2022-07-29T01:50:08.355Z,16.80
2022-07-29T01:52:44.770Z,16.80
2022-07-29T01:55:16.032Z,16.90
2022-07-29T01:57:47.829Z,16.90
2022-07-29T02:00:15.715Z,16.90
2022-07-29T02:02:45.228Z,17.00
2022-07-29T02:05:16.367Z,17.00
2022-07-29T02:07:45.435Z,17.10
2022-07-29T02:10:13.436Z,16.90
2022-07-29T02:12:43.168Z,16.80
2022-07-29T02:15:17.475Z,16.80
2022-07-29T02:17:57.530Z,16.80
2022-07-29T02:20:27.557Z,16.80
2022-07-29T02:22:55.732Z,16.60
2022-07-29T02:25:24.513Z,16.80
2022-07-29T02:27:52.407Z,16.90
2022-07-29T02:30:21.723Z,16.90
2022-07-29T02:32:50.531Z,16.70
2022-07-29T02:35:19.306Z,16.80
2022-07-29T02:38:07.539Z,16.80
2022-07-29T02:40:38.719Z,16.60
2022-07-29T02:43:07.651Z,16.70
2022-07-29T02:45:37.735Z,16.70
2022-07-29T02:48:12.962Z,16.70
2022-07-29T02:50:45.548Z,16.80
2022-07-29T02:53:21.513Z,16.80
2022-07-29T02:55:56.403Z,16.60
2022-07-29T02:58:29.823Z,16.60
2022-07-29T03:01:08.486Z,16.60
2022-07-29T03:03:38.344Z,16.70
2022-07-29T03:06:06.977Z,16.70
2022-07-29T03:08:35.264Z,16.70
2022-07-29T03:11:02.926Z,16.70
2022-07-29T03:13:31.657Z,16.70
2022-07-29T03:15:59.752Z,16.60
2022-07-29T03:18:27.317Z,16.70
2022-07-29T03:20:54.398Z,16.60
2022-07-29T03:23:24.857Z,16.50
2022-07-29T03:25:51.828Z,16.60
2022-07-29T03:28:19.133Z,16.70
2022-07-29T03:30:46.560Z,16.80
2022-07-29T03:33:13.879Z,16.70
2022-07-29T03:35:41.089Z,16.80
2022-07-29T03:38:08.005Z,16.70
2022-07-29T03:40:45.777Z,16.70
2022-07-29T03:43:14.597Z,16.70
2022-07-29T03:45:46.029Z,16.60
2022-07-29T03:48:14.600Z,16.70
2022-07-29T03:50:41.751Z,16.70
2022-07-29T03:53:09.346Z,16.80
2022-07-29T03:55:44.127Z,16.80
2022-07-29T03:58:13.175Z,16.90
2022-07-29T04:00:41.771Z,16.90
2022-07-29T04:03:10.467Z,17.00
2022-07-29T04:05:38.114Z,17.00
2022-07-29T04:08:05.320Z,17.10
2022-07-29T04:10:34.182Z,17.10
2022-07-29T04:13:02.728Z,17.10
2022-07-29T04:15:31.350Z,17.10
2022-07-29T04:17:59.292Z,17.20
2022-07-29T04:20:26.845Z,17.20
2022-07-29T04:22:53.814Z,17.20
2022-07-29T04:25:21.000Z,17.30
2022-07-29T04:28:02.857Z,17.30
2022-07-29T04:30:31.681Z,17.70
2022-07-29T04:32:58.859Z,17.70
2022-07-29T04:35:25.827Z,17.70
2022-07-29T04:37:52.732Z,17.70
2022-07-29T04:40:19.834Z,17.80
2022-07-29T04:42:47.956Z,17.80
2022-07-29T04:45:16.603Z,17.70
2022-07-29T04:47:49.723Z,17.70
2022-07-29T04:50:16.626Z,17.80
2022-07-29T04:52:43.648Z,17.90
2022-07-29T04:55:11.022Z,17.80
2022-07-29T04:57:37.917Z,17.90
2022-07-29T05:00:06.387Z,17.80
2022-07-29T05:02:33.377Z,17.90
2022-07-29T05:05:00.311Z,18.00
2022-07-29T05:07:27.184Z,17.90
2022-07-29T05:09:54.190Z,17.90
2022-07-29T05:12:21.057Z,18.00
2022-07-29T05:14:47.970Z,18.10
2022-07-29T05:17:14.899Z,18.10
2022-07-29T05:19:41.723Z,18.10
2022-07-29T05:22:08.623Z,18.20
2022-07-29T05:24:35.533Z,18.30
2022-07-29T05:27:02.401Z,18.10
2022-07-29T05:29:44.703Z,18.20
2022-07-29T05:32:13.398Z,18.10
2022-07-29T05:34:50.054Z,18.20
2022-07-29T05:37:22.040Z,18.40
2022-07-29T05:39:56.135Z,18.20
2022-07-29T05:42:23.536Z,18.20
2022-07-29T05:44:50.395Z,18.10
2022-07-29T05:47:17.335Z,18.10
2022-07-29T05:49:44.312Z,18.20
2022-07-29T05:52:11.377Z,18.20
2022-07-29T05:54:38.439Z,18.40
2022-07-29T05:57:06.341Z,18.50
2022-07-29T05:59:37.435Z,18.50
2022-07-29T06:02:06.237Z,18.70
2022-07-29T06:04:34.746Z,18.80
2022-07-29T06:07:02.751Z,19.00
2022-07-29T06:09:30.004Z,18.90
2022-07-29T06:11:57.043Z,19.00
2022-07-29T06:14:23.882Z,18.70
2022-07-29T06:16:50.927Z,18.80
2022-07-29T06:19:17.892Z,18.80
2022-07-29T06:21:46.297Z,18.70
2022-07-29T06:24:14.894Z,18.90
2022-07-29T06:26:42.313Z,19.10
2022-07-29T06:29:11.639Z,19.10
2022-07-29T06:31:38.862Z,19.10
2022-07-29T06:34:05.759Z,19.40
2022-07-29T06:36:37.712Z,19.70
2022-07-29T06:39:08.968Z,19.50
2022-07-29T06:41:36.572Z,19.00
2022-07-29T06:44:05.631Z,19.00
2022-07-29T06:46:33.336Z,18.90
2022-07-29T06:49:02.649Z,18.70
2022-07-29T06:51:30.294Z,19.10
2022-07-29T06:54:02.461Z,19.40
2022-07-29T06:56:39.097Z,19.20
2022-07-29T06:59:08.895Z,19.00
2022-07-29T07:01:40.664Z,18.70
2022-07-29T07:04:09.602Z,18.80
2022-07-29T07:06:36.800Z,18.90
2022-07-29T07:09:03.897Z,18.80
2022-07-29T07:11:30.790Z,18.70
2022-07-29T07:14:02.616Z,18.90
2022-07-29T07:16:30.717Z,18.80
2022-07-29T07:18:57.595Z,19.00
2022-07-29T07:21:24.478Z,19.10
2022-07-29T07:23:51.378Z,19.50
2022-07-29T07:26:18.311Z,19.50
2022-07-29T07:28:45.274Z,19.60
2022-07-29T07:31:12.674Z,19.80
2022-07-29T07:33:39.525Z,19.40
2022-07-29T07:36:06.522Z,19.50
2022-07-29T07:38:33.507Z,19.30
2022-07-29T07:41:00.452Z,19.20
2022-07-29T07:43:27.348Z,19.60
2022-07-29T07:45:54.261Z,19.30
2022-07-29T07:48:21.479Z,19.20
2022-07-29T07:50:50.315Z,19.20
2022-07-29T07:53:17.499Z,19.20
2022-07-29T07:56:09.526Z,19.30
2022-07-29T07:58:32.029Z,19.40
2022-07-29T08:00:59.077Z,19.50
2022-07-29T08:03:26.042Z,19.80
2022-07-29T08:05:53.050Z,19.70
2022-07-29T08:08:20.042Z,19.20
2022-07-29T08:10:53.282Z,19.70
2022-07-29T08:13:28.789Z,19.90
2022-07-29T08:15:59.101Z,19.80
2022-07-29T08:18:31.303Z,20.00
2022-07-29T08:20:58.856Z,19.80
2022-07-29T08:23:32.892Z,19.50
2022-07-29T08:26:14.926Z,19.00
2022-07-29T08:28:47.157Z,19.00
2022-07-29T08:31:14.691Z,19.00
2022-07-29T08:33:42.171Z,19.10
2022-07-29T08:36:09.779Z,19.50
2022-07-29T08:38:36.670Z,19.80
2022-07-29T08:41:03.693Z,19.80
2022-07-29T08:43:36.166Z,20.00
2022-07-29T08:46:03.190Z,19.70
2022-07-29T08:48:30.892Z,19.50
2022-07-29T08:50:58.724Z,19.50
2022-07-29T08:53:28.254Z,19.50
2022-07-29T08:55:55.967Z,19.80
2022-07-29T08:58:25.513Z,20.10
2022-07-29T09:00:58.163Z,19.70
2022-07-29T09:03:30.614Z,19.80
2022-07-29T09:05:58.371Z,19.90
2022-07-29T09:08:26.103Z,20.10
2022-07-29T09:10:53.125Z,20.30
2022-07-29T09:13:20.157Z,19.90
2022-07-29T09:15:47.069Z,20.30
2022-07-29T09:18:33.938Z,20.60
2022-07-29T09:21:19.837Z,20.70
2022-07-29T09:24:13.424Z,20.80
2022-07-29T09:26:42.337Z,20.60
2022-07-29T09:29:17.807Z,20.40
2022-07-29T09:31:50.222Z,20.40
2022-07-29T09:34:22.991Z,20.60
2022-07-29T09:36:54.467Z,20.20
2022-07-29T09:39:51.166Z,20.30
2022-07-29T09:42:29.626Z,20.30
2022-07-29T09:44:57.280Z,20.60
2022-07-29T09:47:40.970Z,20.60
2022-07-29T09:50:14.051Z,20.40
2022-07-29T09:52:48.120Z,20.50
2022-07-29T09:55:18.084Z,20.80
2022-07-29T09:57:46.144Z,20.60
2022-07-29T10:00:14.353Z,20.40
2022-07-29T10:02:42.672Z,20.70
2022-07-29T10:05:23.083Z,20.60
2022-07-29T10:07:54.058Z,20.70
2022-07-29T10:10:22.047Z,20.80
2022-07-29T10:13:01.793Z,21.00
2022-07-29T10:15:39.487Z,21.10
2022-07-29T10:18:10.401Z,20.90
2022-07-29T10:20:37.670Z,20.90
2022-07-29T10:23:05.554Z,20.70
2022-07-29T10:25:32.743Z,20.80
2022-07-29T10:27:59.807Z,20.80
2022-07-29T10:30:27.371Z,20.70
2022-07-29T10:33:09.247Z,20.80
2022-07-29T10:35:50.600Z,20.80
2022-07-29T10:38:26.113Z,20.70
2022-07-29T10:41:32.102Z,20.80
2022-07-29T10:44:17.472Z,21.10
2022-07-29T10:46:47.148Z,21.00
2022-07-29T10:49:18.889Z,20.70
2022-07-29T10:52:08.248Z,20.80
2022-07-29T10:54:42.472Z,20.80
2022-07-29T10:57:16.393Z,20.90
2022-07-29T10:59:53.141Z,20.90
2022-07-29T11:02:41.763Z,21.00
2022-07-29T11:05:11.631Z,21.00
2022-07-29T11:08:00.095Z,21.10
2022-07-29T11:10:31.190Z,21.00
2022-07-29T11:12:59.347Z,20.90
2022-07-29T11:15:28.758Z,20.80
2022-07-29T11:20:54.899Z,20.40
2022-07-29T11:23:26.354Z,20.70
2022-07-29T11:26:18.652Z,20.60
2022-07-29T11:28:59.396Z,20.70
2022-07-29T11:31:46.104Z,20.70
2022-07-29T11:34:16.989Z,20.70
2022-07-29T11:37:13.736Z,20.90
2022-07-29T11:39:41.368Z,20.50
2022-07-29T11:42:30.461Z,20.50
2022-07-29T11:45:41.380Z,20.70
2022-07-29T11:47:55.958Z,20.80
2022-07-29T11:50:34.680Z,20.50
2022-07-29T11:53:08.748Z,20.70
2022-07-29T11:55:38.884Z,20.30
2022-07-29T11:58:25.190Z,20.60
2022-07-29T12:00:53.298Z,20.60
2022-07-29T12:03:35.285Z,20.60
2022-07-29T12:06:07.606Z,20.80
2022-07-29T12:08:43.680Z,20.60
2022-07-29T12:11:20.820Z,20.70
2022-07-29T12:13:49.883Z,20.60
2022-07-29T12:16:25.069Z,20.40
2022-07-29T12:19:02.921Z,20.50
2022-07-29T12:21:59.328Z,20.80
2022-07-29T12:24:27.801Z,20.80
2022-07-29T12:26:57.312Z,20.80
2022-07-29T12:29:35.030Z,20.90
2022-07-29T12:32:05.365Z,20.90
2022-07-29T12:34:33.345Z,21.00
2022-07-29T12:37:00.615Z,21.00
2022-07-29T12:39:29.078Z,20.90
2022-07-29T12:42:03.831Z,20.80
2022-07-29T12:44:48.299Z,21.00
2022-07-29T12:47:15.808Z,20.90
2022-07-29T12:49:43.104Z,20.80
2022-07-29T12:52:30.174Z,20.90
2022-07-29T12:55:00.535Z,21.00
2022-07-29T12:57:28.363Z,20.90
2022-07-29T13:00:11.170Z,21.10
2022-07-29T13:02:45.657Z,20.90
2022-07-29T13:05:16.047Z,20.90
2022-07-29T13:07:55.273Z,21.10
2022-07-29T13:10:27.308Z,21.00
2022-07-29T13:13:15.225Z,21.00
2022-07-29T13:15:45.042Z,21.00
2022-07-29T13:18:29.425Z,20.90
2022-07-29T13:20:56.871Z,20.90
2022-07-29T13:23:23.946Z,21.00
2022-07-29T13:25:51.158Z,21.00
2022-07-29T13:28:18.630Z,20.80
2022-07-29T13:30:45.625Z,20.70
2022-07-29T13:33:13.029Z,20.80
2022-07-29T13:35:40.317Z,20.90
2022-07-29T13:38:07.247Z,21.00
2022-07-29T13:40:36.339Z,20.90
2022-07-29T13:43:03.395Z,21.00
2022-07-29T13:45:30.888Z,20.80
2022-07-29T13:47:57.751Z,20.40
2022-07-29T13:50:24.663Z,20.50
2022-07-29T13:52:52.215Z,20.60
2022-07-29T13:55:19.610Z,20.80
2022-07-29T13:57:46.485Z,20.80
2022-07-29T14:00:14.077Z,20.80
2022-07-29T14:02:42.157Z,20.80
2022-07-29T14:05:10.937Z,20.80
2022-07-29T14:07:40.031Z,20.90
2022-07-29T14:10:07.884Z,20.80
2022-07-29T14:12:34.805Z,20.60
2022-07-29T14:15:01.838Z,20.60
2022-07-29T14:17:28.779Z,20.80
2022-07-29T14:19:55.674Z,20.90
2022-07-29T14:22:23.087Z,21.10
2022-07-29T14:24:52.443Z,20.80
2022-07-29T14:27:19.476Z,20.70
2022-07-29T14:30:04.409Z,20.60
2022-07-29T14:32:31.351Z,20.60
2022-07-29T14:34:58.331Z,20.70
2022-07-29T14:37:25.191Z,20.50
2022-07-29T14:39:52.082Z,20.60
2022-07-29T14:42:18.964Z,20.80
2022-07-29T14:44:46.040Z,20.90
2022-07-29T14:47:13.960Z,21.00
2022-07-29T14:49:40.838Z,20.70
2022-07-29T14:52:07.695Z,20.50
2022-07-29T14:54:34.770Z,20.50
2022-07-29T14:57:01.923Z,20.60
2022-07-29T14:59:28.895Z,20.80
2022-07-29T15:01:56.021Z,20.80
2022-07-29T15:04:23.435Z,20.70
2022-07-29T15:06:50.474Z,20.70
2022-07-29T15:09:17.338Z,20.60
2022-07-29T15:11:44.620Z,20.70
2022-07-29T15:14:11.602Z,20.70
2022-07-29T15:16:43.767Z,20.50
2022-07-29T15:19:13.469Z,20.50
2022-07-29T15:21:41.618Z,20.40
2022-07-29T15:24:17.443Z,20.50
2022-07-29T15:26:44.993Z,20.60
2022-07-29T15:29:12.111Z,20.70
2022-07-29T15:31:40.291Z,20.70
2022-07-29T15:34:08.358Z,20.50
2022-07-29T15:36:51.447Z,20.40
2022-07-29T15:39:19.139Z,20.50
2022-07-29T15:41:46.089Z,20.50
2022-07-29T15:44:13.007Z,20.60
2022-07-29T15:46:58.363Z,20.70
2022-07-29T15:49:46.617Z,20.80
2022-07-29T15:52:25.032Z,20.80
2022-07-29T15:54:54.036Z,21.20
2022-07-29T15:57:21.386Z,21.20
2022-07-29T15:59:48.352Z,21.10
2022-07-29T16:02:15.639Z,21.00
2022-07-29T16:04:42.488Z,20.80
2022-07-29T16:07:09.391Z,20.60
2022-07-29T16:09:36.357Z,20.50
2022-07-29T16:12:03.888Z,20.50
2022-07-29T16:14:42.406Z,20.50
2022-07-29T16:17:09.355Z,20.10
2022-07-29T16:19:41.160Z,20.10
2022-07-29T16:22:08.039Z,20.20
2022-07-29T16:24:34.976Z,20.30
2022-07-29T16:27:02.197Z,20.10
2022-07-29T16:29:29.282Z,19.90
2022-07-29T16:31:56.403Z,19.90
2022-07-29T16:34:23.332Z,20.00
2022-07-29T16:36:50.152Z,20.10
2022-07-29T16:39:17.035Z,20.10
2022-07-29T16:41:43.999Z,20.40
2022-07-29T16:44:10.966Z,20.40
2022-07-29T16:46:39.091Z,20.40
2022-07-29T16:49:08.288Z,20.40
2022-07-29T16:51:35.248Z,20.30
2022-07-29T16:54:02.151Z,20.00
2022-07-29T16:56:29.054Z,19.90
2022-07-29T16:58:58.127Z,20.00
2022-07-29T17:01:25.126Z,19.80
2022-07-29T17:04:07.052Z,19.80
2022-07-29T17:06:37.719Z,19.70
2022-07-29T17:09:06.251Z,19.70
2022-07-29T17:11:51.678Z,19.70
2022-07-29T17:14:23.349Z,19.70
2022-07-29T17:17:00.711Z,19.60
2022-07-29T17:19:33.757Z,19.60
2022-07-29T17:22:10.452Z,19.50
2022-07-29T17:24:40.950Z,19.50
2022-07-29T17:27:08.932Z,19.40
2022-07-29T17:29:35.983Z,19.20
2022-07-29T17:32:03.685Z,19.10
2022-07-29T17:34:30.828Z,19.10
2022-07-29T17:36:58.421Z,19.10
2022-07-29T17:39:25.358Z,19.10
2022-07-29T17:41:52.234Z,19.00
2022-07-29T17:44:19.143Z,19.00
2022-07-29T17:46:46.111Z,19.00
2022-07-29T17:49:13.169Z,19.00
2022-07-29T17:51:40.123Z,19.00
2022-07-29T17:54:07.026Z,19.00
2022-07-29T17:56:33.979Z,19.00
2022-07-29T17:59:03.687Z,19.00
2022-07-29T18:01:30.631Z,18.90
2022-07-29T18:04:00.192Z,18.90
2022-07-29T18:06:27.408Z,19.10
2022-07-29T18:08:55.392Z,19.00
2022-07-29T18:11:23.417Z,19.00
2022-07-29T18:13:50.462Z,18.90
2022-07-29T18:16:17.734Z,18.80
2022-07-29T18:18:45.321Z,18.80
2022-07-29T18:21:12.345Z,18.70
2022-07-29T18:23:39.303Z,18.60
2022-07-29T18:26:06.168Z,18.60
2022-07-29T18:28:33.286Z,18.60
2022-07-29T18:31:01.255Z,18.50
2022-07-29T18:33:28.226Z,18.40
2022-07-29T18:36:10.666Z,18.40
2022-07-29T18:38:41.776Z,18.30
2022-07-29T18:41:08.827Z,18.30
2022-07-29T18:43:36.383Z,18.30
2022-07-29T18:46:05.367Z,18.30
2022-07-29T18:48:34.195Z,18.30
2022-07-29T18:51:01.737Z,18.30
2022-07-29T18:53:28.647Z,18.20
2022-07-29T18:56:00.262Z,18.30
2022-07-29T18:58:27.612Z,18.10
2022-07-29T19:00:54.479Z,18.10
2022-07-29T19:03:21.379Z,18.20
2022-07-29T19:05:48.248Z,18.10
2022-07-29T19:08:15.119Z,18.00
2022-07-29T19:10:42.347Z,18.10
2022-07-29T19:13:09.323Z,18.00
2022-07-29T19:15:40.487Z,18.00
2022-07-29T19:18:07.392Z,18.00
2022-07-29T19:20:34.324Z,18.00
2022-07-29T19:23:01.177Z,18.00
2022-07-29T19:25:28.117Z,18.00
2022-07-29T19:27:56.897Z,17.90
2022-07-29T19:30:23.860Z,18.00
2022-07-29T19:32:50.827Z,18.00
2022-07-29T19:35:24.389Z,18.00
2022-07-29T19:37:52.368Z,17.90
2022-07-29T19:40:19.456Z,17.80
2022-07-29T19:42:48.279Z,17.90
2022-07-29T19:45:15.474Z,17.80
2022-07-29T19:47:42.318Z,17.80
2022-07-29T19:50:10.086Z,17.80
2022-07-29T19:52:36.998Z,17.70
2022-07-29T19:55:07.612Z,17.80
2022-07-29T19:57:41.188Z,17.70
2022-07-29T20:00:11.419Z,17.80
2022-07-29T20:02:40.307Z,17.70
2022-07-29T20:05:08.068Z,17.60
2022-07-29T20:07:35.166Z,17.60
2022-07-29T20:10:02.376Z,17.50
2022-07-29T20:12:29.302Z,17.50
2022-07-29T20:14:56.256Z,17.60
2022-07-29T20:17:23.216Z,17.50
2022-07-29T20:19:50.758Z,17.50
2022-07-29T20:22:21.216Z,17.40
2022-07-29T20:24:48.834Z,17.50
2022-07-29T20:27:15.698Z,17.50
2022-07-29T20:29:42.564Z,17.40
2022-07-29T20:32:09.528Z,17.40
2022-07-29T20:34:36.472Z,17.40
2022-07-29T20:37:03.488Z,17.40
2022-07-29T20:39:30.526Z,17.40
2022-07-29T20:41:57.436Z,17.40
2022-07-29T20:44:24.438Z,17.30
2022-07-29T20:46:51.385Z,17.30
2022-07-29T20:49:18.266Z,17.30
2022-07-29T20:51:45.293Z,17.30
2022-07-29T20:54:12.814Z,17.40
2022-07-29T20:56:39.892Z,17.40
2022-07-29T20:59:07.011Z,17.40
2022-07-29T21:01:34.288Z,17.30
2022-07-29T21:04:02.873Z,17.40
2022-07-29T21:06:30.682Z,17.30
2022-07-29T21:08:59.539Z,17.30
2022-07-29T21:11:44.147Z,17.20
2022-07-29T21:14:30.708Z,17.20
2022-07-29T21:16:58.454Z,17.10
2022-07-29T21:19:25.945Z,17.20
2022-07-29T21:21:52.847Z,17.10
2022-07-29T21:24:19.792Z,17.10
2022-07-29T21:26:54.523Z,16.90
2022-07-29T21:29:31.847Z,17.00
2022-07-29T21:31:58.736Z,17.00
2022-07-29T21:34:28.074Z,17.10
2022-07-29T21:36:54.935Z,17.10
2022-07-29T21:39:21.984Z,17.10
2022-07-29T21:41:49.124Z,17.10
2022-07-29T21:44:16.131Z,17.00
2022-07-29T21:46:43.055Z,17.00
2022-07-29T21:49:10.036Z,17.10
2022-07-29T21:51:37.004Z,17.10
2022-07-29T21:54:04.335Z,17.10
2022-07-29T21:56:31.496Z,17.10
2022-07-29T21:58:58.465Z,17.10
2022-07-29T22:01:25.469Z,17.00
2022-07-29T22:03:52.521Z,17.00
2022-07-29T22:06:19.726Z,17.10
2022-07-29T22:08:48.017Z,17.00
2022-07-29T22:11:15.052Z,17.10
2022-07-29T22:13:41.949Z,17.10
2022-07-29T22:16:10.317Z,17.00
2022-07-29T22:18:37.203Z,16.90
2022-07-29T22:21:04.109Z,16.90
2022-07-29T22:23:31.104Z,16.90
2022-07-29T22:25:57.981Z,16.80
2022-07-29T22:28:24.823Z,16.80
2022-07-29T22:30:51.752Z,16.90
2022-07-29T22:33:18.687Z,16.90
2022-07-29T22:35:48.642Z,16.80
2022-07-29T22:38:17.496Z,16.80
2022-07-29T22:40:44.394Z,16.80
2022-07-29T22:43:11.308Z,16.80
2022-07-29T22:45:38.334Z,16.80
2022-07-29T22:48:06.052Z,16.90
2022-07-29T22:50:32.968Z,16.80
2022-07-29T22:52:59.846Z,16.80
2022-07-29T22:55:26.755Z,16.70
2022-07-29T22:57:53.675Z,16.70
2022-07-29T23:00:20.587Z,16.60
2022-07-29T23:02:47.799Z,16.50
2022-07-29T23:05:15.950Z,16.50
2022-07-29T23:07:43.172Z,16.50
2022-07-29T23:10:10.472Z,16.50
2022-07-29T23:12:37.519Z,16.50
2022-07-29T23:15:05.597Z,16.40
2022-07-29T23:17:36.644Z,16.30
2022-07-29T23:20:06.551Z,16.30
2022-07-29T23:22:33.856Z,16.30
2022-07-29T23:25:00.689Z,16.20
2022-07-29T23:27:27.684Z,16.10
2022-07-29T23:29:54.570Z,16.00
2022-07-29T23:32:21.468Z,16.00
2022-07-29T23:34:48.305Z,16.00
2022-07-29T23:37:15.168Z,16.00
2022-07-29T23:39:41.999Z,16.00
2022-07-29T23:42:09.785Z,16.00
2022-07-29T23:44:36.632Z,16.00
2022-07-29T23:47:03.959Z,16.00
2022-07-29T23:49:31.100Z,16.00
2022-07-29T23:51:57.983Z,16.00
2022-07-29T23:54:24.823Z,15.90
2022-07-29T23:56:51.874Z,15.90
2022-07-29T23:59:18.787Z,15.90
